createdAt,value
2022-10-11T00:01:00.918Z,7.97
2022-10-11T00:03:29.067Z,6.53
2022-10-11T00:05:57.193Z,6.38
2022-10-11T00:08:25.333Z,8.50
2022-10-11T00:11:01.732Z,7.22
2022-10-11T00:13:31.411Z,7.88
2022-10-11T00:16:00.060Z,6.60
2022-10-11T00:18:28.415Z,7.97
2022-10-11T00:21:04.569Z,8.82
2022-10-11T00:23:33.162Z,8.05
2022-10-11T00:26:05.084Z,8.13
2022-10-11T00:28:35.276Z,9.82
2022-10-11T00:31:07.512Z,6.93
2022-10-11T00:33:36.068Z,8.82
2022-10-11T00:36:04.852Z,10.38
2022-10-11T00:38:33.245Z,8.73
2022-10-11T00:41:01.874Z,6.35
2022-10-11T00:43:33.981Z,8.95
2022-10-11T00:46:32.040Z,7.30
2022-10-11T00:49:07.364Z,6.10
2022-10-11T00:51:49.973Z,9.88
2022-10-11T00:54:25.254Z,6.20
2022-10-11T00:56:59.457Z,5.07
2022-10-11T00:59:36.615Z,8.47
2022-10-11T01:02:05.815Z,7.33
2022-10-11T01:04:34.924Z,5.33
2022-10-11T01:07:03.986Z,4.77
2022-10-11T01:09:32.582Z,4.50
2022-10-11T01:12:04.681Z,6.53
2022-10-11T01:15:06.752Z,9.47
2022-10-11T01:17:50.661Z,7.40
2022-10-11T01:20:44.449Z,4.97
2022-10-11T01:24:20.115Z,8.17
2022-10-11T01:27:48.636Z,6.87
2022-10-11T01:30:26.067Z,5.30
2022-10-11T01:33:19.645Z,5.90
2022-10-11T01:35:58.327Z,6.93
2022-10-11T01:38:36.735Z,5.60
2022-10-11T01:41:12.093Z,6.47
2022-10-11T01:43:43.008Z,5.73
2022-10-11T01:46:13.495Z,5.60
2022-10-11T01:48:52.995Z,4.63
2022-10-11T01:51:24.264Z,9.13
2022-10-11T01:54:25.833Z,8.40
2022-10-11T01:57:28.436Z,6.60
2022-10-11T02:00:05.161Z,7.10
2022-10-11T02:03:03.228Z,7.73
2022-10-11T02:05:40.199Z,6.47
2022-10-11T02:08:20.018Z,7.17
2022-10-11T02:10:55.567Z,6.03
2022-10-11T02:13:34.390Z,5.03
2022-10-11T02:16:09.370Z,5.23
2022-10-11T02:18:46.631Z,6.03
2022-10-11T02:21:20.263Z,6.70
2022-10-11T02:23:54.737Z,7.13
2022-10-11T02:26:25.841Z,7.30
2022-10-11T02:29:00.374Z,5.00
2022-10-11T02:31:31.666Z,8.70
2022-10-11T02:34:10.677Z,7.57
2022-10-11T02:36:48.707Z,6.40
2022-10-11T02:39:25.547Z,7.80
2022-10-11T02:41:58.880Z,6.43
2022-10-11T02:44:37.712Z,6.73
2022-10-11T02:47:06.859Z,9.77
2022-10-11T02:49:37.085Z,10.10
2022-10-11T02:52:07.772Z,5.80
2022-10-11T02:54:35.926Z,6.53
2022-10-11T02:57:04.061Z,7.43
2022-10-11T02:59:32.037Z,7.13
2022-10-11T03:02:00.061Z,8.43
2022-10-11T03:04:28.182Z,8.53
2022-10-11T03:06:57.511Z,6.73
2022-10-11T03:09:25.566Z,10.33
2022-10-11T03:11:53.540Z,6.67
2022-10-11T03:14:21.539Z,7.87
2022-10-11T03:16:51.554Z,7.37
2022-10-11T03:19:19.738Z,7.00
2022-10-11T03:21:47.837Z,6.83
2022-10-11T03:24:17.215Z,5.70
2022-10-11T03:26:45.574Z,8.40
2022-10-11T03:29:13.686Z,8.10
2022-10-11T03:31:41.689Z,9.47
2022-10-11T03:34:10.533Z,10.47
2022-10-11T03:36:38.552Z,7.87
2022-10-11T03:39:06.591Z,7.23
2022-10-11T03:41:36.083Z,9.67
2022-10-11T03:44:04.219Z,9.60
2022-10-11T03:46:32.228Z,6.60
2022-10-11T03:49:00.283Z,7.30
2022-10-11T03:51:28.404Z,7.50
2022-10-11T03:53:56.409Z,11.57
2022-10-11T03:56:24.758Z,10.17
2022-10-11T03:58:54.115Z,7.03
2022-10-11T04:01:22.143Z,11.17
2022-10-11T04:03:50.165Z,9.10
2022-10-11T04:06:18.173Z,5.87
2022-10-11T04:08:46.131Z,6.97
2022-10-11T04:11:14.141Z,6.27
2022-10-11T04:13:42.108Z,7.77
2022-10-11T04:16:11.498Z,7.47
2022-10-11T04:18:39.936Z,13.63
2022-10-11T04:21:08.022Z,9.07
2022-10-11T04:23:36.059Z,8.63
2022-10-11T04:26:07.727Z,13.00
2022-10-11T04:28:36.810Z,9.33
2022-10-11T04:31:06.566Z,10.33
2022-10-11T04:33:35.987Z,7.63
2022-10-11T04:36:04.670Z,9.07
2022-10-11T04:38:32.897Z,9.23
2022-10-11T04:41:08.522Z,6.43
2022-10-11T04:43:36.900Z,9.53
2022-10-11T04:46:06.032Z,8.50
2022-10-11T04:48:36.632Z,13.07
2022-10-11T04:51:05.351Z,9.73
2022-10-11T04:53:33.390Z,8.73
2022-10-11T04:56:04.925Z,8.13
2022-10-11T04:58:35.117Z,8.53
2022-10-11T05:01:03.416Z,10.80
2022-10-11T05:03:31.901Z,11.67
2022-10-11T05:06:05.714Z,10.37
2022-10-11T05:08:34.241Z,14.03
2022-10-11T05:11:05.278Z,11.60
2022-10-11T05:13:35.267Z,10.93
2022-10-11T05:16:08.447Z,9.77
2022-10-11T05:18:39.692Z,12.23
2022-10-11T05:21:16.831Z,9.97
2022-10-11T05:23:46.408Z,8.70
2022-10-11T05:26:15.017Z,11.67
2022-10-11T05:28:43.715Z,10.53
2022-10-11T05:31:12.269Z,10.20
2022-10-11T05:33:40.602Z,9.30
2022-10-11T05:36:10.723Z,10.77
2022-10-11T05:38:39.261Z,13.17
2022-10-11T05:41:09.081Z,9.30
2022-10-11T05:43:37.143Z,14.53
2022-10-11T05:46:05.783Z,12.20
2022-10-11T05:48:34.353Z,10.73
2022-10-11T05:51:03.464Z,9.40
2022-10-11T05:53:33.422Z,11.63
2022-10-11T05:56:01.717Z,9.57
2022-10-11T05:58:31.146Z,9.30
2022-10-11T06:00:59.203Z,9.40
2022-10-11T06:03:27.745Z,11.80
2022-10-11T06:06:03.290Z,10.10
2022-10-11T06:08:33.652Z,9.10
2022-10-11T06:11:13.145Z,13.13
2022-10-11T06:13:42.113Z,15.30
2022-10-11T06:16:10.811Z,16.77
2022-10-11T06:18:38.993Z,10.53
2022-10-11T06:21:07.772Z,15.20
2022-10-11T06:23:37.165Z,11.17
2022-10-11T06:26:09.352Z,17.97
2022-10-11T06:28:38.686Z,12.30
2022-10-11T06:31:08.306Z,10.20
2022-10-11T06:33:37.543Z,8.80
2022-10-11T06:36:09.668Z,10.50
2022-10-11T06:38:44.558Z,10.57
2022-10-11T06:41:17.656Z,11.73
2022-10-11T06:43:46.441Z,13.30
2022-10-11T06:46:14.614Z,11.03
2022-10-11T06:48:44.677Z,11.87
2022-10-11T06:51:12.960Z,9.90
2022-10-11T06:53:43.007Z,8.27
2022-10-11T06:56:13.925Z,9.63
2022-10-11T06:58:42.165Z,16.70
2022-10-11T07:01:13.705Z,13.27
2022-10-11T07:03:41.769Z,12.50
2022-10-11T07:06:13.293Z,9.63
2022-10-11T07:08:42.963Z,9.83
2022-10-11T07:11:13.853Z,9.57
2022-10-11T07:13:42.771Z,8.17
2022-10-11T07:16:13.659Z,14.80
2022-10-11T07:18:42.313Z,8.60
2022-10-11T07:21:13.210Z,8.20
2022-10-11T07:23:43.567Z,9.27
2022-10-11T07:26:12.480Z,6.77
2022-10-11T07:28:42.157Z,9.10
2022-10-11T07:31:14.195Z,15.07
2022-10-11T07:33:42.678Z,10.03
2022-10-11T07:36:12.106Z,7.57
2022-10-11T07:38:43.022Z,10.97
2022-10-11T07:41:11.562Z,11.30
2022-10-11T07:43:39.939Z,12.73
2022-10-11T07:46:09.095Z,17.90
2022-10-11T07:48:39.015Z,10.67
2022-10-11T07:51:11.143Z,11.23
2022-10-11T07:53:45.412Z,10.57
2022-10-11T07:56:16.209Z,7.37
2022-10-11T07:58:44.932Z,10.13
2022-10-11T08:01:14.599Z,8.23
2022-10-11T08:03:42.700Z,10.83
2022-10-11T08:06:14.596Z,9.07
2022-10-11T08:08:44.216Z,7.60
2022-10-11T08:11:20.784Z,8.87
2022-10-11T08:13:48.771Z,9.68
2022-10-11T08:16:17.431Z,10.17
2022-10-11T08:18:45.894Z,9.73
2022-10-11T08:21:17.295Z,5.80
2022-10-11T08:23:47.137Z,8.30
2022-10-11T08:26:15.499Z,9.90
2022-10-11T08:28:43.601Z,8.48
2022-10-11T08:31:15.439Z,8.63
2022-10-11T08:33:44.110Z,8.82
2022-10-11T08:36:13.445Z,11.65
2022-10-11T08:38:42.262Z,12.32
2022-10-11T08:41:28.599Z,5.05
2022-10-11T08:44:21.342Z,5.90
2022-10-11T08:47:00.997Z,9.18
2022-10-11T08:49:34.271Z,8.95
2022-10-11T08:52:07.395Z,7.75
2022-10-11T08:54:47.754Z,10.10
2022-10-11T08:57:21.891Z,16.65
2022-10-11T08:59:57.274Z,7.78
2022-10-11T09:03:06.493Z,8.50
2022-10-11T09:05:36.506Z,6.68
2022-10-11T09:08:19.841Z,8.70
2022-10-11T09:11:13.798Z,10.45
2022-10-11T09:14:15.145Z,10.20
2022-10-11T09:17:01.106Z,5.57
2022-10-11T09:19:57.214Z,9.60
2022-10-11T09:22:42.491Z,8.10
2022-10-11T09:25:24.741Z,8.10
2022-10-11T09:28:11.764Z,9.23
2022-10-11T09:30:48.545Z,7.03
2022-10-11T09:33:21.993Z,7.68
2022-10-11T09:35:53.464Z,10.15
2022-10-11T09:38:42.032Z,9.73
2022-10-11T09:41:19.345Z,6.45
2022-10-11T09:43:50.559Z,6.43
2022-10-11T09:46:32.623Z,8.43
2022-10-11T09:49:04.069Z,7.18
2022-10-11T09:51:33.760Z,7.35
2022-10-11T09:54:05.254Z,9.32
2022-10-11T09:56:41.162Z,5.60
2022-10-11T09:59:28.341Z,7.28
2022-10-11T10:02:21.911Z,6.53
2022-10-11T10:05:04.216Z,5.78
2022-10-11T10:07:35.500Z,5.30
2022-10-11T10:10:30.954Z,5.32
2022-10-11T10:13:02.423Z,5.75
2022-10-11T10:15:32.543Z,5.22
2022-10-11T10:18:02.988Z,7.85
2022-10-11T10:20:34.505Z,7.57
2022-10-11T10:23:10.870Z,6.07
2022-10-11T10:25:43.478Z,5.25
2022-10-11T10:28:23.832Z,4.60
2022-10-11T10:30:55.295Z,5.30
2022-10-11T10:33:28.062Z,9.43
2022-10-11T10:36:04.196Z,6.78
2022-10-11T10:38:40.334Z,8.43
2022-10-11T10:41:13.829Z,6.50
2022-10-11T10:43:46.444Z,5.60
2022-10-11T10:46:48.440Z,4.65
2022-10-11T10:49:53.786Z,8.38
2022-10-11T10:52:48.942Z,6.88
2022-10-11T10:55:35.493Z,5.80
2022-10-11T10:58:18.918Z,10.98
2022-10-11T11:00:50.624Z,6.05
2022-10-11T11:03:28.968Z,5.88
2022-10-11T11:06:04.323Z,4.57
2022-10-11T11:08:53.321Z,5.05
2022-10-11T11:11:40.817Z,8.73
2022-10-11T11:14:28.795Z,5.07
2022-10-11T11:17:07.079Z,5.18
2022-10-11T11:19:54.574Z,5.70
2022-10-11T11:22:44.295Z,8.45
2022-10-11T11:25:28.199Z,4.25
2022-10-11T11:28:15.505Z,6.82
2022-10-11T11:30:57.750Z,4.65
2022-10-11T11:33:48.468Z,6.72
2022-10-11T11:36:28.682Z,7.72
2022-10-11T11:39:03.350Z,5.28
2022-10-11T11:41:38.645Z,6.10
2022-10-11T11:44:15.538Z,4.10
2022-10-11T11:46:51.087Z,5.57
2022-10-11T11:49:25.862Z,5.85
2022-10-11T11:51:55.956Z,5.55
2022-10-11T11:54:43.282Z,3.47
2022-10-11T11:57:31.543Z,5.45
2022-10-11T12:00:07.729Z,5.45
2022-10-11T12:02:52.570Z,6.95
2022-10-11T12:05:25.016Z,6.35
2022-10-11T12:08:00.622Z,7.40
2022-10-11T12:10:39.531Z,4.70
2022-10-11T12:13:18.572Z,3.53
2022-10-11T12:16:11.761Z,6.65
2022-10-11T12:18:55.165Z,3.65
2022-10-11T12:21:31.779Z,4.60
2022-10-11T12:24:01.615Z,5.38
2022-10-11T12:26:44.544Z,4.10
2022-10-11T12:29:52.105Z,4.15
2022-10-11T12:32:54.847Z,5.32
2022-10-11T12:36:01.417Z,5.72
2022-10-11T12:38:34.771Z,6.90
2022-10-11T12:41:50.723Z,5.38
2022-10-11T12:44:26.239Z,6.22
2022-10-11T12:47:31.081Z,3.75
2022-10-11T12:50:16.946Z,4.38
2022-10-11T12:53:00.860Z,3.25
2022-10-11T12:55:48.506Z,5.20
2022-10-11T12:58:31.062Z,3.65
2022-10-11T13:01:23.111Z,8.35
2022-10-11T13:04:04.965Z,6.88
2022-10-11T13:06:38.170Z,7.63
2022-10-11T13:09:18.847Z,3.20
2022-10-11T13:11:53.369Z,4.47
2022-10-11T13:14:26.341Z,7.03
2022-10-11T13:17:08.686Z,9.75
2022-10-11T13:22:20.052Z,3.92
2022-10-11T13:24:48.120Z,5.15
2022-10-11T13:27:22.709Z,3.95
2022-10-11T13:29:56.225Z,5.05
2022-10-11T13:32:28.299Z,5.38
2022-10-11T13:35:03.893Z,4.78
2022-10-11T13:37:42.081Z,6.47
2022-10-11T13:40:15.679Z,5.57
2022-10-11T13:42:45.129Z,6.93
2022-10-11T13:45:17.936Z,4.72
2022-10-11T13:47:48.873Z,7.20
2022-10-11T13:50:31.617Z,5.10
2022-10-11T13:53:02.939Z,4.63
2022-10-11T13:55:34.845Z,4.70
2022-10-11T13:58:17.662Z,7.07
2022-10-11T14:00:56.989Z,6.20
2022-10-11T14:03:36.975Z,3.75
2022-10-11T14:06:05.782Z,5.03
2022-10-11T14:08:40.365Z,4.45
2022-10-11T14:11:10.219Z,5.43
2022-10-11T14:13:40.700Z,4.28
2022-10-11T14:16:13.973Z,3.88
2022-10-11T14:18:49.848Z,5.50
2022-10-11T14:21:32.022Z,3.50
2022-10-11T14:24:04.874Z,4.32
2022-10-11T14:26:36.915Z,7.57
2022-10-11T14:29:09.697Z,6.55
2022-10-11T14:31:42.030Z,4.07
2022-10-11T14:34:20.052Z,4.53
2022-10-11T14:36:50.836Z,3.03
2022-10-11T14:39:21.377Z,5.40
2022-10-11T14:41:52.164Z,4.55
2022-10-11T14:44:21.641Z,5.25
2022-10-11T14:46:54.790Z,4.05
2022-10-11T14:49:26.156Z,6.63
2022-10-11T14:51:57.028Z,4.10
2022-10-11T14:54:27.802Z,7.80
2022-10-11T14:56:59.400Z,3.20
2022-10-11T14:59:32.412Z,5.68
2022-10-11T15:02:02.117Z,3.70
2022-10-11T15:04:30.419Z,5.75
2022-10-11T15:07:00.332Z,2.72
2022-10-11T15:09:28.275Z,4.22
2022-10-11T15:11:56.847Z,5.20
2022-10-11T15:14:25.886Z,4.30
2022-10-11T15:16:55.967Z,5.22
2022-10-11T15:19:26.584Z,6.40
2022-10-11T15:21:54.534Z,6.47
2022-10-11T15:24:22.522Z,5.70
2022-10-11T15:26:50.700Z,6.85
2022-10-11T15:29:20.344Z,4.47
2022-10-11T15:31:49.183Z,6.55
2022-10-11T15:34:17.594Z,5.68
2022-10-11T15:36:47.155Z,8.10
2022-10-11T15:39:27.413Z,7.88
2022-10-11T15:41:55.516Z,6.20
2022-10-11T15:44:23.578Z,6.82
2022-10-11T15:46:51.698Z,9.02
2022-10-11T15:49:19.670Z,8.00
2022-10-11T15:51:48.938Z,5.22
2022-10-11T15:54:16.879Z,8.07
2022-10-11T15:56:44.759Z,7.03
2022-10-11T15:59:12.732Z,6.90
2022-10-11T16:01:41.018Z,7.60
2022-10-11T16:04:09.116Z,7.40
2022-10-11T16:06:37.037Z,8.90
2022-10-11T16:09:06.612Z,6.07
2022-10-11T16:11:34.539Z,6.97
2022-10-11T16:14:02.568Z,9.30
2022-10-11T16:16:30.487Z,7.27
2022-10-11T16:18:58.430Z,9.17
2022-10-11T16:21:26.374Z,5.80
2022-10-11T16:23:54.329Z,4.80
2022-10-11T16:26:23.588Z,5.07
2022-10-11T16:28:51.635Z,7.05
2022-10-11T16:31:20.940Z,5.40
2022-10-11T16:33:50.157Z,5.87
2022-10-11T16:36:35.936Z,3.67
2022-10-11T16:39:09.623Z,4.60
2022-10-11T16:41:39.522Z,3.93
2022-10-11T16:44:08.832Z,4.80
2022-10-11T16:46:36.756Z,5.10
2022-10-11T16:49:05.727Z,6.17
2022-10-11T16:51:34.092Z,4.93
2022-10-11T16:54:02.480Z,5.97
2022-10-11T16:56:32.518Z,6.53
2022-10-11T16:59:04.040Z,10.37
2022-10-11T17:01:32.150Z,8.17
2022-10-11T17:04:00.464Z,7.70
2022-10-11T17:06:28.499Z,12.77
2022-10-11T17:08:58.072Z,8.73
2022-10-11T17:11:26.110Z,9.10
2022-10-11T17:13:54.664Z,9.03
2022-10-11T17:16:24.561Z,8.40
2022-10-11T17:18:53.006Z,9.73
2022-10-11T17:21:22.833Z,8.93
2022-10-11T17:23:51.442Z,10.83
2022-10-11T17:26:23.254Z,8.77
2022-10-11T17:28:51.547Z,7.67
2022-10-11T17:31:19.968Z,8.93
2022-10-11T17:33:49.577Z,8.83
2022-10-11T17:36:23.916Z,8.27
2022-10-11T17:38:53.169Z,11.97
2022-10-11T17:41:21.745Z,11.00
2022-10-11T17:43:49.788Z,10.57
2022-10-11T17:46:19.333Z,9.80
2022-10-11T17:48:48.620Z,17.50
2022-10-11T17:51:19.917Z,10.13
2022-10-11T17:53:50.711Z,11.90
2022-10-11T17:56:27.790Z,9.87
2022-10-11T17:58:58.824Z,9.97
2022-10-11T18:01:29.815Z,13.13
2022-10-11T18:04:01.554Z,16.27
2022-10-11T18:06:33.451Z,15.37
2022-10-11T18:09:04.017Z,13.40
2022-10-11T18:11:32.953Z,10.67
2022-10-11T18:14:01.498Z,13.87
2022-10-11T18:16:31.231Z,12.20
2022-10-11T18:19:03.148Z,11.47
2022-10-11T18:21:34.550Z,16.00
2022-10-11T18:24:06.168Z,11.17
2022-10-11T18:26:34.995Z,14.57
2022-10-11T18:29:03.289Z,10.80
2022-10-11T18:31:33.673Z,12.07
2022-10-11T18:34:03.588Z,12.87
2022-10-11T18:36:33.192Z,13.17
2022-10-11T18:39:04.402Z,15.33
2022-10-11T18:41:35.213Z,11.30
2022-10-11T18:44:06.700Z,14.27
2022-10-11T18:46:35.525Z,11.63
2022-10-11T18:49:05.090Z,13.63
2022-10-11T18:51:36.310Z,13.83
2022-10-11T18:54:05.958Z,12.50
2022-10-11T18:56:36.852Z,11.00
2022-10-11T18:59:05.972Z,11.70
2022-10-11T19:01:37.997Z,14.60
2022-10-11T19:04:10.458Z,14.33
2022-10-11T19:06:42.917Z,11.30
2022-10-11T19:09:14.140Z,12.17
2022-10-11T19:11:42.908Z,10.67
2022-10-11T19:14:14.678Z,14.67
2022-10-11T19:16:49.014Z,13.17
2022-10-11T19:19:20.873Z,12.27
2022-10-11T19:21:49.434Z,12.63
2022-10-11T19:24:18.624Z,13.60
2022-10-11T19:26:47.450Z,10.90
2022-10-11T19:29:19.688Z,9.37
2022-10-11T19:31:50.868Z,11.40
2022-10-11T19:34:21.808Z,12.27
2022-10-11T19:36:52.689Z,10.13
2022-10-11T19:39:22.483Z,12.53
2022-10-11T19:41:50.525Z,12.77
2022-10-11T19:44:18.952Z,12.90
2022-10-11T19:46:52.140Z,11.97
2022-10-11T19:49:24.747Z,12.07
2022-10-11T19:51:53.684Z,12.80
2022-10-11T19:54:21.959Z,10.80
2022-10-11T19:56:50.010Z,11.00
2022-10-11T19:59:18.254Z,9.43
2022-10-11T20:01:52.043Z,13.43
2022-10-11T20:04:50.457Z,13.87
2022-10-11T20:07:11.457Z,11.33
2022-10-11T20:09:39.502Z,10.43
2022-10-11T20:12:08.203Z,10.10
2022-10-11T20:14:36.216Z,12.73
2022-10-11T20:17:04.229Z,9.60
2022-10-11T20:19:33.547Z,8.63
2022-10-11T20:22:02.360Z,12.73
2022-10-11T20:24:33.556Z,13.83
2022-10-11T20:27:03.306Z,13.23
2022-10-11T20:29:31.530Z,11.27
2022-10-11T20:31:59.912Z,14.83
2022-10-11T20:34:28.637Z,12.80
2022-10-11T20:36:57.957Z,9.17
2022-10-11T20:39:26.066Z,10.93
2022-10-11T20:41:54.159Z,11.57
2022-10-11T20:44:22.205Z,11.93
2022-10-11T20:46:50.187Z,11.20
2022-10-11T20:49:19.798Z,9.63
2022-10-11T20:51:47.856Z,12.20
2022-10-11T20:54:18.061Z,14.50
2022-10-11T20:56:46.107Z,13.67
2022-10-11T20:59:14.141Z,13.10
2022-10-11T21:01:43.975Z,13.87
2022-10-11T21:04:19.603Z,10.90
2022-10-11T21:06:49.665Z,12.33
2022-10-11T21:09:19.180Z,11.50
2022-10-11T21:11:47.331Z,10.83
2022-10-11T21:14:15.428Z,15.57
2022-10-11T21:16:43.722Z,13.30
2022-10-11T21:19:15.929Z,17.27
2022-10-11T21:21:45.688Z,15.63
2022-10-11T21:24:17.801Z,12.33
2022-10-11T21:26:45.860Z,12.30
2022-10-11T21:29:14.038Z,13.57
2022-10-11T21:31:41.981Z,13.70
2022-10-11T21:34:10.009Z,15.57
2022-10-11T21:36:38.051Z,14.27
2022-10-11T21:39:06.054Z,15.37
2022-10-11T21:41:35.625Z,13.33
2022-10-11T21:44:04.388Z,12.13
2022-10-11T21:47:06.025Z,15.03
2022-10-11T21:49:21.811Z,14.03
2022-10-11T21:51:50.201Z,16.07
2022-10-11T21:54:18.778Z,11.70
2022-10-11T21:56:48.539Z,14.10
2022-10-11T21:59:16.752Z,15.43
2022-10-11T22:01:45.178Z,13.70
2022-10-11T22:04:13.377Z,13.73
2022-10-11T22:06:41.429Z,14.03
2022-10-11T22:09:10.232Z,16.53
2022-10-11T22:11:38.648Z,15.50
2022-10-11T22:14:08.478Z,13.73
2022-10-11T22:16:36.567Z,12.60
2022-10-11T22:19:05.221Z,15.60
2022-10-11T22:21:33.423Z,14.73
2022-10-11T22:24:01.483Z,14.23
2022-10-11T22:26:32.191Z,18.97
2022-10-11T22:29:00.949Z,14.73
2022-10-11T22:31:31.180Z,14.23
2022-10-11T22:34:01.247Z,14.33
2022-10-11T22:36:30.665Z,16.97
2022-10-11T22:38:59.150Z,17.27
2022-10-11T22:41:27.514Z,14.80
2022-10-11T22:43:55.501Z,16.37
2022-10-11T22:46:23.487Z,16.17
2022-10-11T22:48:52.908Z,14.97
2022-10-11T22:51:21.197Z,18.90
2022-10-11T22:53:49.240Z,15.20
2022-10-11T22:56:17.256Z,15.30
2022-10-11T22:58:45.427Z,14.93
2022-10-11T23:01:15.591Z,13.77
2022-10-11T23:03:44.215Z,15.53
2022-10-11T23:06:13.595Z,13.30
2022-10-11T23:08:41.855Z,16.00
2022-10-11T23:11:10.960Z,15.93
2022-10-11T23:13:38.931Z,15.23
2022-10-11T23:16:08.416Z,16.40
2022-10-11T23:18:36.755Z,14.67
2022-10-11T23:21:06.734Z,13.73
2022-10-11T23:23:36.572Z,13.50
2022-10-11T23:26:07.760Z,13.97
2022-10-11T23:28:36.300Z,16.27
2022-10-11T23:31:09.248Z,15.77
2022-10-11T23:33:37.696Z,15.00
2022-10-11T23:36:06.957Z,16.17
2022-10-11T23:38:36.253Z,15.83
2022-10-11T23:41:04.284Z,13.87
2022-10-11T23:43:32.241Z,15.50
2022-10-11T23:46:00.579Z,17.00
2022-10-11T23:48:28.610Z,18.23
2022-10-11T23:50:56.581Z,15.27
2022-10-11T23:53:24.691Z,15.67
2022-10-11T23:55:54.139Z,15.73
2022-10-11T23:58:22.450Z,15.03
